Time;durP1;ratioP1;P1;durP2;ratioP2;P2;SDS_P1;SDS_P2;PMS_P1;PMS_P2;Temp;Humidity;BMP_temperature;BMP_pressure;BME280_temperature;BME280_humidity;BME280_pressure;Samples;Min_cycle;Max_cycle;Signal;HPM_P1;HPM_P2
2023/10/23 00:01:47;;;;;;;2.83;2.55;;;11.70;99.90;;;;;;5041706;28;20037;-67
2023/10/23 00:04:12;;;;;;;4.75;3.13;;;11.70;99.90;;;;;;5039720;28;20422;-67
2023/10/23 00:06:38;;;;;;;5.57;2.90;;;11.60;99.90;;;;;;5043461;28;20021;-67
2023/10/23 00:09:03;;;;;;;3.70;3.10;;;11.60;99.90;;;;;;5034710;28;20034;-67
2023/10/23 00:11:30;;;;;;;3.00;2.70;;;11.70;99.90;;;;;;5046014;28;20072;-67
2023/10/23 00:13:56;;;;;;;3.25;2.58;;;11.70;99.90;;;;;;5039460;28;20025;-67
2023/10/23 00:16:23;;;;;;;7.18;2.53;;;11.60;99.90;;;;;;5047542;28;20098;-67
2023/10/23 00:18:49;;;;;;;4.80;2.33;;;11.70;99.90;;;;;;5034664;28;20060;-67
2023/10/23 00:21:15;;;;;;;3.72;2.50;;;11.70;99.90;;;;;;5038514;28;20021;-67
2023/10/23 00:23:40;;;;;;;3.60;2.95;;;11.70;99.90;;;;;;5039122;28;20040;-67
2023/10/23 00:26:06;;;;;;;10.15;3.20;;;11.70;99.90;;;;;;5043434;28;20021;-67
2023/10/23 00:28:36;;;;;;;3.60;2.97;;;11.70;99.90;;;;;;5034763;28;20086;-67
2023/10/23 00:31:01;;;;;;;4.35;2.72;;;11.70;99.90;;;;;;5045532;28;20072;-68
2023/10/23 00:33:27;;;;;;;4.78;2.85;;;11.60;99.90;;;;;;5043002;28;20069;-67
2023/10/23 00:35:53;;;;;;;4.22;2.92;;;11.60;99.90;;;;;;5041032;28;20041;-67
2023/10/23 00:38:19;;;;;;;3.78;3.00;;;11.60;99.90;;;;;;5035914;28;20029;-67
2023/10/23 00:40:45;;;;;;;3.75;3.10;;;11.60;99.90;;;;;;5043696;28;20021;-67
2023/10/23 00:43:19;;;;;;;3.55;2.60;;;11.50;99.90;;;;;;5047553;28;20086;-67
2023/10/23 00:45:55;;;;;;;4.07;2.85;;;11.60;99.90;;;;;;5044616;28;20028;-67
2023/10/23 00:48:22;;;;;;;2.95;2.38;;;11.50;99.90;;;;;;5045488;28;20025;-67
2023/10/23 00:50:49;;;;;;;5.80;3.20;;;11.50;99.90;;;;;;5041018;28;20040;-67
2023/10/23 00:53:19;;;;;;;4.35;3.47;;;11.50;99.90;;;;;;5041583;28;20033;-67
2023/10/23 00:55:46;;;;;;;9.43;3.55;;;11.60;99.90;;;;;;5038583;28;20072;-67
2023/10/23 00:58:15;;;;;;;3.55;2.88;;;11.60;99.90;;;;;;5039554;28;20036;-67
2023/10/23 01:00:44;;;;;;;8.48;3.67;;;11.60;99.90;;;;;;5040283;28;20021;-67
2023/10/23 01:03:09;;;;;;;4.80;3.72;;;11.60;99.90;;;;;;5035866;28;20021;-67
2023/10/23 01:05:37;;;;;;;6.22;3.70;;;11.60;99.90;;;;;;5046151;28;20024;-67
2023/10/23 01:08:06;;;;;;;5.20;3.63;;;11.70;99.90;;;;;;5037496;28;20479;-67
2023/10/23 01:10:34;;;;;;;6.13;4.28;;;11.80;99.90;;;;;;5042331;28;20877;-67
2023/10/23 01:12:59;;;;;;;;;;;11.80;99.90;;;;;;5038990;28;20059;-67
2023/10/23 01:15:26;;;;;;;6.32;4.32;;;11.90;99.90;;;;;;5043232;28;20338;-67
2023/10/23 01:17:51;;;;;;;5.70;3.85;;;11.90;99.90;;;;;;5045071;28;20050;-67
2023/10/23 01:20:20;;;;;;;12.50;4.13;;;11.90;99.90;;;;;;5043239;28;20438;-68
2023/10/23 01:22:46;;;;;;;6.45;3.67;;;12.00;99.90;;;;;;5044868;28;20112;-67
2023/10/23 01:25:17;;;;;;;5.50;3.83;;;12.00;99.90;;;;;;5041522;28;20096;-67
2023/10/23 01:27:43;;;;;;;7.10;3.97;;;12.10;99.90;;;;;;5041487;28;20124;-67
2023/10/23 01:30:10;;;;;;;6.47;4.07;;;12.20;99.90;;;;;;5044056;28;20108;-67
2023/10/23 01:32:38;;;;;;;4.45;3.65;;;12.20;99.90;;;;;;5043643;28;20556;-68
2023/10/23 01:35:04;;;;;;;8.52;4.28;;;12.20;99.90;;;;;;5035790;28;20091;-67
2023/10/23 01:37:30;;;;;;;6.15;3.72;;;12.20;99.90;;;;;;5043686;28;20429;-68
2023/10/23 01:39:56;;;;;;;5.15;4.07;;;12.30;99.90;;;;;;5039697;28;20094;-67
2023/10/23 01:42:28;;;;;;;6.90;3.85;;;12.30;99.90;;;;;;5047990;28;20079;-67
2023/10/23 01:44:55;;;;;;;5.57;3.92;;;12.30;99.90;;;;;;5037846;28;20032;-67
2023/10/23 01:47:24;;;;;;;5.27;3.93;;;12.30;99.90;;;;;;5036446;28;20025;-67
2023/10/23 01:49:50;;;;;;;9.25;4.20;;;12.40;99.90;;;;;;5044922;28;20099;-68
2023/10/23 01:52:16;;;;;;;4.50;3.72;;;12.50;99.90;;;;;;5034141;28;20029;-67
2023/10/23 01:54:43;;;;;;;9.00;4.18;;;12.50;99.90;;;;;;5039213;28;20071;-68
2023/10/23 01:57:09;;;;;;;8.30;4.07;;;12.50;99.90;;;;;;5039958;28;20051;-68
2023/10/23 01:59:35;;;;;;;6.68;4.65;;;12.50;99.90;;;;;;5036941;28;20536;-68
2023/10/23 02:02:01;;;;;;;8.55;3.97;;;12.50;99.90;;;;;;5035847;28;20040;-67
2023/10/23 02:04:27;;;;;;;6.90;4.25;;;12.60;99.90;;;;;;5041248;28;20032;-67
2023/10/23 02:06:52;;;;;;;5.88;3.97;;;12.60;99.90;;;;;;5044154;28;20098;-67
2023/10/23 02:09:18;;;;;;;3.88;3.10;;;12.60;99.90;;;;;;5038467;28;20507;-68
2023/10/23 02:11:44;;;;;;;5.32;3.60;;;12.70;99.90;;;;;;5042000;28;20037;-68
2023/10/23 02:14:10;;;;;;;7.60;3.58;;;12.70;99.90;;;;;;5035879;28;20029;-68
2023/10/23 02:16:35;;;;;;;5.47;3.40;;;12.80;99.90;;;;;;5041126;28;20029;-67
2023/10/23 02:19:03;;;;;;;5.68;3.35;;;12.80;99.90;;;;;;5040463;28;20037;-67
2023/10/23 02:21:29;;;;;;;6.93;2.90;;;12.80;99.90;;;;;;5039681;28;20025;-67
2023/10/23 02:23:58;;;;;;;4.55;3.08;;;12.90;99.90;;;;;;5038359;28;20048;-67
2023/10/23 02:26:24;;;;;;;5.60;3.45;;;12.90;99.90;;;;;;5033690;28;20104;-67
2023/10/23 02:28:52;;;;;;;5.50;3.50;;;12.90;99.90;;;;;;5039924;28;20108;-68
2023/10/23 02:31:20;;;;;;;4.45;3.15;;;12.90;99.90;;;;;;5037260;28;20030;-68
2023/10/23 02:33:45;;;;;;;4.45;3.15;;;12.90;99.90;;;;;;5038235;28;20036;-68
2023/10/23 02:36:11;;;;;;;4.10;3.17;;;13.00;99.90;;;;;;5039273;28;20384;-67
2023/10/23 02:38:40;;;;;;;4.75;3.30;;;12.90;99.90;;;;;;5035979;28;20495;-67
2023/10/23 02:41:05;;;;;;;4.88;3.30;;;12.90;99.90;;;;;;5035976;28;20025;-68
2023/10/23 02:43:33;;;;;;;4.68;3.20;;;12.90;99.90;;;;;;5043184;28;20779;-68
2023/10/23 02:46:02;;;;;;;;;;;12.90;99.90;;;;;;5045208;28;20029;-68
2023/10/23 02:48:28;;;;;;;5.18;3.20;;;12.90;99.90;;;;;;5040903;28;19923;-67
2023/10/23 02:50:57;;;;;;;3.92;2.80;;;13.00;99.90;;;;;;5040382;28;20029;-67
2023/10/23 02:53:23;;;;;;;5.78;2.85;;;13.00;99.90;;;;;;5039384;28;20032;-67
2023/10/23 02:55:49;;;;;;;3.17;2.70;;;12.90;99.90;;;;;;5033799;28;20434;-67
2023/10/23 02:58:18;;;;;;;5.85;2.83;;;12.90;99.90;;;;;;5038012;28;20029;-76
2023/10/23 03:00:44;;;;;;;5.22;3.40;;;13.00;99.90;;;;;;5036716;28;20120;-76
2023/10/23 03:03:10;;;;;;;4.38;3.53;;;13.00;99.90;;;;;;5040633;28;20120;-76
2023/10/23 03:05:36;;;;;;;3.83;3.30;;;13.00;99.90;;;;;;5042116;28;20051;-77
2023/10/23 03:08:02;;;;;;;4.53;3.53;;;12.90;99.90;;;;;;5044060;28;20483;-76
2023/10/23 03:10:28;;;;;;;4.40;3.28;;;13.00;99.90;;;;;;5035432;28;20048;-76
2023/10/23 03:12:54;;;;;;;6.47;3.58;;;13.00;99.90;;;;;;5040060;28;20048;-76
2023/10/23 03:15:19;;;;;;;4.72;3.40;;;13.10;99.90;;;;;;5042480;28;20498;-77
2023/10/23 03:17:45;;;;;;;4.80;3.70;;;13.00;99.90;;;;;;5042527;28;20588;-76
2023/10/23 03:20:11;;;;;;;3.97;3.20;;;13.00;99.90;;;;;;5044738;28;20027;-76
2023/10/23 03:22:38;;;;;;;5.85;3.75;;;13.10;99.90;;;;;;5047145;28;20017;-76
2023/10/23 03:25:04;;;;;;;6.03;3.38;;;13.10;99.90;;;;;;5039247;28;20032;-76
2023/10/23 03:27:30;;;;;;;5.28;3.67;;;13.10;99.90;;;;;;5048685;28;20029;-76
2023/10/23 03:29:58;;;;;;;6.03;3.47;;;13.10;99.90;;;;;;5040942;28;20043;-76
2023/10/23 03:32:24;;;;;;;8.25;3.75;;;13.10;99.90;;;;;;5045263;28;20025;-77
2023/10/23 03:34:50;;;;;;;4.97;3.88;;;13.10;99.90;;;;;;5037580;28;20030;-77
2023/10/23 03:37:15;;;;;;;7.53;4.15;;;13.10;99.90;;;;;;5041370;28;20071;-77
2023/10/23 03:39:41;;;;;;;5.90;4.05;;;13.10;99.90;;;;;;5040059;28;20029;-77
2023/10/23 03:42:08;;;;;;;5.57;3.90;;;13.10;99.90;;;;;;5040753;28;20021;-77
2023/10/23 03:44:34;;;;;;;8.60;3.85;;;13.10;99.90;;;;;;5040548;28;20456;-78
2023/10/23 03:47:00;;;;;;;7.70;4.00;;;13.10;99.90;;;;;;5045334;28;20523;-77
2023/10/23 03:49:27;;;;;;;6.78;4.07;;;13.10;99.90;;;;;;5044774;28;20045;-77
2023/10/23 03:51:53;;;;;;;4.43;3.88;;;13.10;99.90;;;;;;5041936;28;20044;-78
2023/10/23 03:54:18;;;;;;;6.00;4.20;;;13.20;99.90;;;;;;5045353;28;20029;-77
2023/10/23 03:56:44;;;;;;;5.30;4.18;;;13.20;99.90;;;;;;5046029;28;20155;-77
2023/10/23 03:59:09;;;;;;;6.55;4.43;;;13.20;99.90;;;;;;5042956;28;20529;-77
2023/10/23 04:01:37;;;;;;;6.55;4.28;;;13.20;99.90;;;;;;5039362;28;20392;-77
2023/10/23 04:04:05;;;;;;;;;;;13.20;99.90;;;;;;5041888;28;20058;-77
2023/10/23 04:06:31;;;;;;;5.75;4.35;;;13.30;99.90;;;;;;5043747;28;19909;-78
2023/10/23 04:08:56;;;;;;;7.45;4.68;;;13.20;99.90;;;;;;5040724;28;20029;-76
2023/10/23 04:11:22;;;;;;;8.32;4.88;;;13.20;99.90;;;;;;5040103;28;20438;-76
2023/10/23 04:13:48;;;;;;;5.25;4.10;;;13.20;99.90;;;;;;5043865;28;20037;-76
2023/10/23 04:16:15;;;;;;;6.00;4.50;;;13.20;99.90;;;;;;5037809;28;20082;-76
2023/10/23 04:18:42;;;;;;;5.32;4.07;;;13.30;99.90;;;;;;5040871;28;20029;-76
2023/10/23 04:21:11;;;;;;;7.03;4.13;;;13.20;99.90;;;;;;5047951;28;20075;-76
2023/10/23 04:23:39;;;;;;;6.45;3.72;;;13.20;99.90;;;;;;5041763;28;20036;-76
2023/10/23 04:26:07;;;;;;;4.93;3.13;;;13.20;99.90;;;;;;5042979;28;20029;-76
2023/10/23 04:28:33;;;;;;;4.78;3.22;;;13.20;99.90;;;;;;5041112;28;20053;-76
2023/10/23 04:30:59;;;;;;;4.20;3.55;;;13.20;99.90;;;;;;5037715;28;20108;-76
2023/10/23 04:33:25;;;;;;;8.43;4.93;;;13.10;99.90;;;;;;5043938;28;20586;-76
2023/10/23 04:35:52;;;;;;;5.75;4.00;;;13.10;99.90;;;;;;5034812;28;20036;-75
2023/10/23 04:38:18;;;;;;;10.13;3.80;;;13.00;99.90;;;;;;5038166;28;20051;-76
2023/10/23 04:40:44;;;;;;;5.47;3.75;;;12.90;99.90;;;;;;5042683;28;20976;-76
2023/10/23 04:43:12;;;;;;;7.20;4.63;;;13.00;99.90;;;;;;5038055;28;20029;-76
2023/10/23 04:45:38;;;;;;;8.18;4.35;;;12.90;99.90;;;;;;5040784;28;20168;-76
2023/10/23 04:48:05;;;;;;;6.97;5.05;;;12.80;99.90;;;;;;5041016;28;20486;-76
2023/10/23 04:50:34;;;;;;;7.47;4.70;;;12.80;99.90;;;;;;5041394;28;20060;-76
2023/10/23 04:53:00;;;;;;;7.72;5.32;;;12.70;99.90;;;;;;5038930;28;20407;-76
2023/10/23 04:55:30;;;;;;;8.70;6.60;;;12.70;99.90;;;;;;5039424;28;20040;-76
2023/10/23 04:57:56;;;;;;;6.95;5.03;;;12.70;99.90;;;;;;5040667;28;20052;-76
2023/10/23 05:00:21;;;;;;;11.23;7.32;;;12.70;99.90;;;;;;5041472;28;20068;-76
2023/10/23 05:02:47;;;;;;;13.82;8.18;;;12.60;99.90;;;;;;5041044;28;20040;-76
2023/10/23 05:05:13;;;;;;;13.68;7.85;;;12.70;99.90;;;;;;5037697;28;20021;-75
2023/10/23 05:07:38;;;;;;;15.00;8.80;;;12.60;99.90;;;;;;5044537;28;20131;-76
2023/10/23 05:10:07;;;;;;;14.75;8.20;;;12.70;99.90;;;;;;5049583;28;20032;-76
2023/10/23 05:12:33;;;;;;;14.50;8.82;;;12.80;99.90;;;;;;5037998;28;20079;-76
2023/10/23 05:14:58;;;;;;;13.63;8.60;;;12.90;99.90;;;;;;5040037;28;20064;-76
2023/10/23 05:17:24;;;;;;;12.50;8.38;;;12.90;99.90;;;;;;5041576;28;20036;-76
2023/10/23 05:19:50;;;;;;;12.65;7.95;;;13.00;99.90;;;;;;5044871;28;20100;-76
2023/10/23 05:22:18;;;;;;;11.88;7.25;;;12.90;99.90;;;;;;5043253;28;20075;-76
2023/10/23 05:24:47;;;;;;;11.60;7.65;;;12.90;99.90;;;;;;5041224;28;20083;-76
2023/10/23 05:27:20;;;;;;;10.68;7.32;;;12.90;99.90;;;;;;5038664;28;20025;-75
2023/10/23 05:29:46;;;;;;;11.23;7.13;;;12.90;99.90;;;;;;5034956;28;20083;-76
2023/10/23 05:32:12;;;;;;;12.20;7.57;;;12.90;99.90;;;;;;5040799;28;20130;-76
2023/10/23 05:34:37;;;;;;;10.18;7.18;;;12.90;99.90;;;;;;5037515;28;20321;-76
2023/10/23 05:37:03;;;;;;;14.32;7.43;;;12.80;99.90;;;;;;5037759;28;20106;-76
2023/10/23 05:39:29;;;;;;;10.02;7.07;;;12.80;99.90;;;;;;5039851;28;20040;-77
2023/10/23 05:41:54;;;;;;;10.50;6.85;;;12.70;99.90;;;;;;5047391;28;20020;-77
2023/10/23 05:44:20;;;;;;;12.20;7.18;;;12.60;99.90;;;;;;5040681;28;20132;-77
2023/10/23 05:46:46;;;;;;;14.13;7.45;;;12.50;99.90;;;;;;5036873;28;20520;-77
2023/10/23 05:49:14;;;;;;;11.35;6.82;;;12.50;99.90;;;;;;5047015;28;20103;-77
2023/10/23 05:51:39;;;;;;;10.43;6.80;;;12.50;99.90;;;;;;5038980;28;20080;-77
2023/10/23 05:54:09;;;;;;;9.45;6.85;;;12.30;99.90;;;;;;5038547;28;20554;-77
2023/10/23 05:56:34;;;;;;;13.60;6.55;;;12.30;99.90;;;;;;5035126;28;20025;-77
2023/10/23 05:59:00;;;;;;;14.85;7.75;;;12.30;99.90;;;;;;5035932;28;20475;-77
2023/10/23 06:01:26;;;;;;;14.23;8.32;;;12.30;99.90;;;;;;5038771;28;20033;-77
2023/10/23 06:03:52;;;;;;;13.38;7.07;;;12.40;99.90;;;;;;5039553;28;20065;-77
2023/10/23 06:06:18;;;;;;;11.82;7.55;;;12.30;99.90;;;;;;5038893;28;20040;-77
2023/10/23 06:08:44;;;;;;;15.90;9.63;;;12.20;99.90;;;;;;5040609;28;20033;-76
2023/10/23 06:11:11;;;;;;;21.08;10.98;;;12.20;99.90;;;;;;5041325;28;20025;-77
2023/10/23 06:13:37;;;;;;;17.25;11.13;;;12.30;99.90;;;;;;5032382;28;20026;-77
2023/10/23 06:16:05;;;;;;;14.57;10.07;;;12.30;99.90;;;;;;5043118;28;20519;-77
2023/10/23 06:18:32;;;;;;;19.67;9.73;;;12.20;99.90;;;;;;5037377;28;20154;-77
2023/10/23 06:21:03;;;;;;;17.00;9.48;;;12.20;99.90;;;;;;5042343;28;20525;-77
2023/10/23 06:23:51;;;;;;;14.38;9.10;;;12.10;99.90;;;;;;5038861;28;20026;-77
2023/10/23 06:26:17;;;;;;;14.50;8.60;;;12.20;99.90;;;;;;5036320;28;20025;-77
2023/10/23 06:28:45;;;;;;;11.70;8.95;;;12.10;99.90;;;;;;5036451;28;20025;-77
2023/10/23 06:31:11;;;;;;;14.07;8.90;;;12.10;99.90;;;;;;5039001;28;20029;-77
2023/10/23 06:33:42;;;;;;;18.45;10.10;;;12.00;99.90;;;;;;5039263;28;20061;-77
2023/10/23 06:36:09;;;;;;;16.85;9.30;;;12.00;99.90;;;;;;5033302;28;20032;-77
2023/10/23 06:38:35;;;;;;;13.25;8.80;;;12.10;99.90;;;;;;5028493;28;20029;-77
2023/10/23 06:41:09;;;;;;;17.92;10.82;;;12.10;99.90;;;;;;5040630;28;20059;-77
2023/10/23 06:43:37;;;;;;;13.65;8.07;;;12.10;99.90;;;;;;5034651;28;20365;-76
2023/10/23 06:46:03;;;;;;;15.38;9.77;;;12.10;99.90;;;;;;5041980;28;20033;-75
2023/10/23 06:48:34;;;;;;;14.88;9.05;;;11.90;99.90;;;;;;5031801;28;20033;-75
2023/10/23 06:51:00;;;;;;;15.32;8.85;;;12.00;99.90;;;;;;5045821;28;20052;-76
2023/10/23 06:53:26;;;;;;;16.80;9.68;;;12.00;99.90;;;;;;5040551;28;20490;-75
2023/10/23 06:55:53;;;;;;;16.35;11.00;;;12.10;99.90;;;;;;5042049;28;20100;-77
2023/10/23 06:58:19;;;;;;;17.97;10.20;;;12.00;99.90;;;;;;5036221;28;20032;-78
2023/10/23 07:00:46;;;;;;;18.48;10.68;;;12.10;99.90;;;;;;5035453;28;20277;-77
2023/10/23 07:03:13;;;;;;;18.35;10.18;;;12.10;99.90;;;;;;5038076;28;20080;-76
2023/10/23 07:05:39;;;;;;;17.17;10.40;;;12.20;99.90;;;;;;5043665;28;20075;-75
2023/10/23 07:08:05;;;;;;;20.75;11.00;;;12.30;99.90;;;;;;5036014;28;20383;-75
2023/10/23 07:10:33;;;;;;;21.25;11.45;;;12.30;99.90;;;;;;5038009;28;20039;-76
2023/10/23 07:12:58;;;;;;;18.63;11.38;;;12.40;99.90;;;;;;5043663;28;20044;-75
2023/10/23 07:15:26;;;;;;;20.38;11.18;;;12.50;99.90;;;;;;5036154;28;20025;-75
2023/10/23 07:17:52;;;;;;;17.98;11.45;;;12.50;99.90;;;;;;5040111;28;20124;-75
2023/10/23 07:20:17;;;;;;;17.80;10.88;;;12.60;99.90;;;;;;5038059;28;20565;-75
2023/10/23 07:22:43;;;;;;;22.38;11.15;;;12.60;99.90;;;;;;5039112;28;20029;-77
2023/10/23 07:25:11;;;;;;;18.35;10.73;;;12.70;99.90;;;;;;5039553;28;20487;-75
2023/10/23 07:27:39;;;;;;;19.25;11.63;;;12.70;99.90;;;;;;5039395;28;20025;-77
2023/10/23 07:30:07;;;;;;;21.77;11.63;;;12.80;99.90;;;;;;5038945;28;20074;-75
2023/10/23 07:32:35;;;;;;;18.58;11.07;;;12.80;99.90;;;;;;5042107;28;20033;-77
2023/10/23 07:35:01;;;;;;;18.80;10.88;;;12.80;99.90;;;;;;5041396;28;20029;-77
2023/10/23 07:37:29;;;;;;;16.98;11.13;;;12.80;99.90;;;;;;5040965;28;20587;-75
2023/10/23 07:39:56;;;;;;;19.67;11.15;;;12.90;99.90;;;;;;5043082;28;20087;-76
2023/10/23 07:42:22;;;;;;;17.83;11.25;;;12.90;99.90;;;;;;5038553;28;20025;-77
2023/10/23 07:44:47;;;;;;;18.10;10.80;;;12.90;99.90;;;;;;5036890;28;20115;-76
2023/10/23 07:47:13;;;;;;;23.50;11.93;;;13.00;99.90;;;;;;5045550;28;20030;-76
2023/10/23 07:49:38;;;;;;;19.02;12.35;;;13.00;99.90;;;;;;5038587;28;20041;-76
2023/10/23 07:52:04;;;;;;;24.90;14.63;;;13.00;99.90;;;;;;5040488;28;20083;-76
2023/10/23 07:54:33;;;;;;;25.20;16.02;;;13.00;99.90;;;;;;5045552;28;20028;-77
2023/10/23 07:56:58;;;;;;;32.88;18.65;;;13.00;99.90;;;;;;5047386;28;20037;-78
2023/10/23 07:59:26;;;;;;;32.25;18.67;;;12.90;99.90;;;;;;5036841;28;20041;-78
2023/10/23 08:01:54;;;;;;;37.60;20.55;;;12.90;99.90;;;;;;5040706;28;20535;-77
2023/10/23 08:04:19;;;;;;;;;;;13.00;99.90;;;;;;5042756;28;20029;-78
2023/10/23 08:06:47;;;;;;;33.10;17.80;;;13.00;99.90;;;;;;5048653;28;20433;-78
2023/10/23 08:09:13;;;;;;;;;;;13.00;99.90;;;;;;5043504;28;20499;-78
2023/10/23 08:11:41;;;;;;;32.03;18.58;;;13.00;99.90;;;;;;5033498;28;19943;-77
2023/10/23 08:14:06;;;;;;;36.65;19.25;;;13.10;99.90;;;;;;5045512;28;20083;-77
2023/10/23 08:16:32;;;;;;;36.55;20.65;;;13.20;99.90;;;;;;5037169;28;20033;-65
2023/10/23 08:18:58;;;;;;;34.95;20.15;;;13.20;99.90;;;;;;5042691;28;20479;-77
2023/10/23 08:21:27;;;;;;;33.28;18.80;;;13.10;99.90;;;;;;5038693;28;20065;-76
2023/10/23 08:23:54;;;;;;;34.90;19.60;;;13.20;99.90;;;;;;5035901;28;20020;-76
2023/10/23 08:26:22;;;;;;;32.40;18.98;;;13.30;99.90;;;;;;5043195;28;20022;-78
2023/10/23 08:28:48;;;;;;;30.25;17.85;;;13.40;99.90;;;;;;5035616;28;20037;-75
2023/10/23 08:31:14;;;;;;;34.33;17.80;;;13.30;99.90;;;;;;5042614;28;20056;-76
2023/10/23 08:33:40;;;;;;;30.70;19.05;;;13.30;99.90;;;;;;5036563;28;20057;-76
2023/10/23 08:36:05;;;;;;;30.02;18.23;;;13.20;99.90;;;;;;5034945;28;21984;-75
2023/10/23 08:38:33;;;;;;;34.35;19.15;;;13.30;99.90;;;;;;5040900;28;20477;-75
2023/10/23 08:41:01;;;;;;;30.20;18.17;;;13.40;99.90;;;;;;5039944;28;20099;-75
2023/10/23 08:43:29;;;;;;;31.17;17.40;;;13.50;99.90;;;;;;5041125;28;20036;-77
2023/10/23 08:45:58;;;;;;;;;;;13.50;99.90;;;;;;5039632;28;20026;-77
2023/10/23 08:48:24;;;;;;;27.33;16.98;;;13.50;99.90;;;;;;5033642;28;20290;-77
2023/10/23 08:50:54;;;;;;;33.10;16.40;;;13.60;99.90;;;;;;5048706;28;20024;-77
2023/10/23 08:53:27;;;;;;;24.33;15.90;;;13.60;99.90;;;;;;5038781;28;20052;-77
2023/10/23 08:55:53;;;;;;;29.65;16.20;;;13.60;99.90;;;;;;5038750;28;20506;-77
2023/10/23 08:58:23;;;;;;;24.70;15.23;;;13.60;99.90;;;;;;5045438;28;20037;-76
2023/10/23 09:00:48;;;;;;;22.50;13.77;;;13.60;99.90;;;;;;5038111;28;20423;-77
2023/10/23 09:03:15;;;;;;;21.83;13.43;;;13.70;99.90;;;;;;5037917;28;20115;-77
2023/10/23 09:05:40;;;;;;;24.48;14.15;;;13.70;99.90;;;;;;5037796;28;20013;-76
2023/10/23 09:08:06;;;;;;;24.70;14.75;;;13.70;99.90;;;;;;5042234;28;20498;-78
2023/10/23 09:10:32;;;;;;;23.52;14.93;;;13.80;99.90;;;;;;5046249;28;20074;-77
2023/10/23 09:12:57;;;;;;;23.17;14.52;;;13.90;99.90;;;;;;5040223;28;20068;-79
2023/10/23 09:15:25;;;;;;;22.35;14.25;;;14.00;99.90;;;;;;5044251;28;20037;-79
2023/10/23 09:17:53;;;;;;;25.95;14.90;;;14.10;99.90;;;;;;5042234;28;20053;-78
2023/10/23 09:20:26;;;;;;;26.93;14.27;;;14.10;99.90;;;;;;5041430;28;20112;-77
2023/10/23 09:22:52;;;;;;;27.15;12.70;;;14.10;99.90;;;;;;5042274;28;20021;-76
2023/10/23 09:25:25;;;;;;;23.20;14.43;;;14.20;99.90;;;;;;5041310;28;20021;-77
2023/10/23 09:27:52;;;;;;;21.73;14.02;;;14.20;99.90;;;;;;5038810;28;20028;-75
2023/10/23 09:30:23;;;;;;;19.88;12.57;;;14.30;99.90;;;;;;5045593;28;20021;-76
2023/10/23 09:32:55;;;;;;;19.65;12.10;;;14.20;99.90;;;;;;5042319;28;20031;-75
2023/10/23 09:35:24;;;;;;;19.42;12.50;;;14.20;99.90;;;;;;5042150;28;20021;-78
2023/10/23 09:37:50;;;;;;;17.38;11.90;;;14.20;99.90;;;;;;5037251;28;20052;-76
2023/10/23 09:40:17;;;;;;;24.85;12.43;;;14.30;99.90;;;;;;5039830;28;20076;-75
2023/10/23 09:42:45;;;;;;;19.92;12.65;;;14.30;99.90;;;;;;5041297;28;20017;-75
2023/10/23 09:45:12;;;;;;;19.70;12.55;;;14.20;99.90;;;;;;5034200;28;20163;-76
2023/10/23 09:47:42;;;;;;;18.48;11.73;;;14.20;99.90;;;;;;5034395;28;20025;-76
2023/10/23 09:50:08;;;;;;;20.55;12.65;;;14.20;99.90;;;;;;5042294;28;20029;-76
2023/10/23 09:52:38;;;;;;;16.55;10.95;;;14.10;99.90;;;;;;5039060;28;20111;-76
2023/10/23 09:55:08;;;;;;;13.60;9.68;;;14.20;99.90;;;;;;5041378;28;20032;-76
2023/10/23 09:57:40;;;;;;;12.68;8.38;;;14.20;99.90;;;;;;5037377;28;20479;-75
2023/10/23 10:00:15;;;;;;;14.98;10.45;;;14.20;99.90;;;;;;5040320;28;20029;-76
2023/10/23 10:02:55;;;;;;;14.60;9.52;;;14.30;99.90;;;;;;5040077;28;20380;-76
2023/10/23 10:05:36;;;;;;;13.68;9.75;;;14.30;99.90;;;;;;5038186;28;20029;-75
2023/10/23 10:08:04;;;;;;;17.98;11.77;;;14.30;99.90;;;;;;5035134;28;20029;-76
2023/10/23 10:10:30;;;;;;;20.58;12.40;;;14.50;99.90;;;;;;5036497;28;20487;-76
2023/10/23 10:12:56;;;;;;;23.60;12.80;;;14.60;99.90;;;;;;5038446;28;20078;-76
2023/10/23 10:15:23;;;;;;;19.40;12.30;;;14.90;99.90;;;;;;5049016;28;20035;-77
2023/10/23 10:17:49;;;;;;;17.33;11.68;;;14.90;99.90;;;;;;5044762;28;20939;-77
2023/10/23 10:20:21;;;;;;;15.60;10.73;;;14.90;99.90;;;;;;5039998;28;20444;-76
2023/10/23 10:23:05;;;;;;;19.55;11.85;;;15.00;99.90;;;;;;5044826;28;20148;-77
2023/10/23 10:25:35;;;;;;;18.58;10.55;;;15.10;99.90;;;;;;5048223;28;20021;-77
2023/10/23 10:28:08;;;;;;;21.63;10.95;;;15.10;99.90;;;;;;5041179;28;20107;-77
2023/10/23 10:30:49;;;;;;;17.05;11.18;;;15.20;99.90;;;;;;5035513;28;20029;-76
2023/10/23 10:33:16;;;;;;;14.68;10.75;;;15.10;99.90;;;;;;5036774;28;20025;-75
2023/10/23 10:35:50;;;;;;;12.13;9.25;;;15.00;99.90;;;;;;5033730;28;20383;-75
2023/10/23 10:38:24;;;;;;;14.70;10.05;;;15.00;99.90;;;;;;5040492;28;20024;-76
2023/10/23 10:40:55;;;;;;;14.10;10.00;;;15.00;99.90;;;;;;5046237;28;20697;-76
2023/10/23 10:43:25;;;;;;;15.25;10.40;;;15.20;99.90;;;;;;5042563;28;20017;-76
2023/10/23 10:45:51;;;;;;;14.30;10.25;;;15.50;99.90;;;;;;5035195;28;20021;-76
2023/10/23 10:48:17;;;;;;;14.88;10.07;;;15.60;99.90;;;;;;5036468;28;20036;-76
2023/10/23 10:50:42;;;;;;;14.43;10.05;;;15.70;99.90;;;;;;5036745;28;20040;-76
2023/10/23 10:53:13;;;;;;;13.07;9.77;;;15.80;99.90;;;;;;5043352;28;20466;-76
2023/10/23 10:55:39;;;;;;;17.90;8.93;;;15.90;99.90;;;;;;5039813;28;20144;-76
2023/10/23 10:58:07;;;;;;;15.40;9.63;;;15.90;99.90;;;;;;5038194;28;20847;-75
2023/10/23 11:00:35;;;;;;;9.90;8.32;;;16.10;99.90;;;;;;5030458;28;20083;-66
2023/10/23 11:03:01;;;;;;;13.88;8.68;;;16.10;99.90;;;;;;5035882;28;20063;-66
2023/10/23 11:05:27;;;;;;;10.85;6.97;;;16.20;99.90;;;;;;5032015;28;20160;-67
2023/10/23 11:07:57;;;;;;;8.65;6.00;;;16.20;99.90;;;;;;5043616;28;20494;-67
2023/10/23 11:10:22;;;;;;;8.75;6.28;;;16.20;99.90;;;;;;5044903;28;20049;-67
2023/10/23 11:12:50;;;;;;;10.20;6.68;;;16.20;99.90;;;;;;5047940;28;20071;-67
2023/10/23 11:15:16;;;;;;;11.43;7.22;;;16.30;99.90;;;;;;5037257;28;20430;-67
2023/10/23 11:17:42;;;;;;;10.75;7.00;;;16.50;99.90;;;;;;5040602;28;20116;-67
2023/10/23 11:20:15;;;;;;;9.27;6.15;;;16.50;99.90;;;;;;5044536;28;20021;-68
2023/10/23 11:22:47;;;;;;;9.48;6.15;;;16.50;99.90;;;;;;5041324;28;20029;-67
2023/10/23 11:25:15;;;;;;;8.73;5.70;;;16.80;99.90;;;;;;5041270;28;20030;-67
2023/10/23 11:27:41;;;;;;;9.07;4.43;;;16.80;99.90;;;;;;5041617;28;20060;-67
2023/10/23 11:30:07;;;;;;;8.07;5.70;;;16.70;99.90;;;;;;5042038;28;20032;-68
2023/10/23 11:32:34;;;;;;;7.40;5.43;;;16.80;99.90;;;;;;5039844;28;20104;-67
2023/10/23 11:35:05;;;;;;;11.43;5.10;;;16.90;99.90;;;;;;5046526;28;20018;-67
2023/10/23 11:37:50;;;;;;;6.90;4.60;;;16.80;99.90;;;;;;5040760;28;20021;-67
2023/10/23 11:40:22;;;;;;;8.75;4.75;;;16.50;99.90;;;;;;5042421;28;20059;-67
2023/10/23 11:42:55;;;;;;;7.18;4.85;;;16.50;99.90;;;;;;5042929;28;20435;-67
2023/10/23 11:45:21;;;;;;;5.75;5.10;;;16.50;99.90;;;;;;5040214;28;20029;-67
2023/10/23 11:47:50;;;;;;;8.27;5.07;;;16.50;99.90;;;;;;5036366;28;20021;-67
2023/10/23 11:50:17;;;;;;;6.10;4.72;;;16.40;99.90;;;;;;5040918;28;20029;-67
2023/10/23 11:52:47;;;;;;;8.70;5.68;;;16.40;99.90;;;;;;5039142;28;20043;-67
2023/10/23 11:55:17;;;;;;;7.65;4.78;;;16.50;99.90;;;;;;5040409;28;20056;-67
2023/10/23 11:57:46;;;;;;;9.35;5.68;;;16.50;99.90;;;;;;5037636;28;20034;-67
2023/10/23 12:00:14;;;;;;;8.38;5.35;;;16.50;99.90;;;;;;5040416;28;20021;-67
2023/10/23 12:02:44;;;;;;;9.40;5.07;;;16.40;99.90;;;;;;5038302;28;20025;-67
2023/10/23 12:05:15;;;;;;;8.93;5.55;;;16.30;99.90;;;;;;5035286;28;20108;-67
2023/10/23 12:07:47;;;;;;;6.90;4.93;;;16.30;99.90;;;;;;5036096;28;20288;-67
2023/10/23 12:10:16;;;;;;;7.68;4.93;;;16.30;99.90;;;;;;5044443;28;20029;-67
2023/10/23 12:12:52;;;;;;;10.05;5.35;;;16.30;99.90;;;;;;5037099;28;20400;-67
2023/10/23 12:15:17;;;;;;;7.88;4.88;;;16.20;99.90;;;;;;5046071;28;20024;-67
2023/10/23 12:17:45;;;;;;;8.35;4.78;;;16.10;99.90;;;;;;5037794;28;20010;-67
2023/10/23 12:20:14;;;;;;;9.52;4.88;;;16.10;99.90;;;;;;5035315;28;20032;-67
2023/10/23 12:22:44;;;;;;;7.57;5.40;;;16.10;99.90;;;;;;5043487;28;20023;-67
2023/10/23 12:25:13;;;;;;;7.80;5.05;;;16.10;99.90;;;;;;5040706;28;20108;-67
2023/10/23 12:27:40;;;;;;;7.35;4.95;;;16.10;99.90;;;;;;5036049;28;20067;-67
2023/10/23 12:30:11;;;;;;;6.80;4.55;;;16.20;99.90;;;;;;5036417;28;20104;-67
2023/10/23 12:32:40;;;;;;;11.45;5.80;;;16.30;99.90;;;;;;5036385;28;20025;-67
2023/10/23 12:35:08;;;;;;;9.77;4.82;;;16.30;99.90;;;;;;5036890;28;20033;-68
2023/10/23 12:37:36;;;;;;;16.70;6.13;;;16.30;99.90;;;;;;5033624;28;20048;-68
2023/10/23 12:40:03;;;;;;;7.82;4.80;;;16.30;99.90;;;;;;5037666;28;20518;-67
2023/10/23 12:42:31;;;;;;;7.40;5.07;;;16.30;99.90;;;;;;5040781;28;20024;-67